Summerset, South Dakota
Current Conditions -  °F | °C
As of 2:58 AM on Saturday 25 Oct 2014 (Local Time) from KRCA Reporting Station
Clear Clear  
Wind Chill: 34°   Ceiling: Unl
Heat Index: 39°   Visibility: 8mi
Dew Point: 33°   Wind: 7mph
Humidity: 78%   Direction: 300°WNW
Pressure: 30.15"   Gusts: NA
Location:  44.2544°N, 103.292°W
Report Text: KRCA 250858Z AUTO 30006KT 8SM CLR 04/01 A3015 RMK AO2 SLP209 T00400005 50004 $
Loading
Personal Weather Stations






























Interactive Weather Map
Tropical Storm Tracking
New forecast layout! Learn more

10-Day Weather Forecast

Advertisements
Track Severe Weather on mobile